Time;durP1;ratioP1;P1;durP2;ratioP2;P2;SDS_P1;SDS_P2;PMS_P1;PMS_P2;Temp;Humidity;BMP_temperature;BMP_pressure;BME280_temperature;BME280_humidity;BME280_pressure;Samples;Min_cycle;Max_cycle;Signal;HPM_P1;HPM_P2
2022/04/06 00:02:21;;;;;;;7.80;7.20;;;7.50;61.50;;;;;;4977300;28;20519;-55
2022/04/06 00:04:48;;;;;;;7.87;7.20;;;7.50;61.50;;;;;;4981593;28;20539;-52
2022/04/06 00:07:16;;;;;;;7.83;7.23;;;7.50;59.20;;;;;;4966484;28;20467;-53
2022/04/06 00:09:42;;;;;;;8.53;7.67;;;7.60;58.80;;;;;;4969116;28;20469;-52
2022/04/06 00:12:09;;;;;;;7.60;7.00;;;7.60;57.30;;;;;;4961759;28;20554;-53
2022/04/06 00:14:36;;;;;;;7.30;6.70;;;7.60;57.80;;;;;;4972552;28;20549;-52
2022/04/06 00:17:05;;;;;;;7.73;7.13;;;7.60;55.20;;;;;;4965867;28;20549;-53
2022/04/06 00:19:33;;;;;;;8.60;6.40;;;7.60;53.90;;;;;;4967096;28;20880;-52
2022/04/06 00:22:00;;;;;;;7.00;6.50;;;7.60;52.70;;;;;;4971141;28;20457;-52
2022/04/06 00:24:27;;;;;;;7.97;7.37;;;7.60;53.10;;;;;;4971148;28;20544;-52
2022/04/06 00:26:53;;;;;;;7.67;6.97;;;7.60;50.90;;;;;;4964462;28;20885;-52
2022/04/06 00:29:20;;;;;;;8.33;7.53;;;7.70;50.20;;;;;;4960408;28;20561;-53
2022/04/06 00:31:47;;;;;;;7.77;7.13;;;7.70;50.40;;;;;;4966242;28;20552;-52
2022/04/06 00:34:13;;;;;;;8.37;7.67;;;7.70;48.60;;;;;;4962230;28;20544;-53
2022/04/06 00:36:41;;;;;;;7.37;6.83;;;7.70;48.20;;;;;;4966806;28;20545;-53
2022/04/06 00:39:08;;;;;;;8.43;7.73;;;7.70;47.40;;;;;;4961589;28;20577;-52
2022/04/06 00:41:35;;;;;;;9.17;8.20;;;7.70;46.30;;;;;;4963655;28;20557;-52
2022/04/06 00:44:14;;;;;;;8.20;7.50;;;7.70;46.00;;;;;;4965164;28;20476;-53
2022/04/06 00:46:41;;;;;;;7.70;7.00;;;7.70;45.80;;;;;;4957742;28;20494;-52
2022/04/06 00:49:11;;;;;;;8.13;7.33;;;7.70;45.00;;;;;;4963261;28;20525;-52
2022/04/06 00:51:39;;;;;;;8.63;7.80;;;7.70;43.80;;;;;;4963788;28;20528;-53
2022/04/06 00:54:07;;;;;;;8.27;7.53;;;7.70;44.00;;;;;;4958748;28;20512;-52
2022/04/06 00:56:34;;;;;;;9.00;8.20;;;7.70;42.90;;;;;;4963508;28;20546;-52
2022/04/06 00:59:01;;;;;;;10.50;7.87;;;7.70;39.70;;;;;;4964663;28;20478;-52
2022/04/06 01:01:28;;;;;;;8.30;7.53;;;7.70;40.90;;;;;;4967929;28;20517;-52
2022/04/06 01:03:55;;;;;;;8.00;7.20;;;7.70;40.80;;;;;;4968723;28;20920;-53
2022/04/06 01:06:21;;;;;;;8.40;7.70;;;7.70;38.70;;;;;;4964302;28;20988;-52
2022/04/06 01:08:48;;;;;;;8.13;7.53;;;7.70;39.20;;;;;;4963796;28;20525;-48
2022/04/06 01:11:16;;;;;;;8.27;7.67;;;7.70;36.30;;;;;;4968205;28;20465;-48
2022/04/06 01:13:43;;;;;;;8.10;7.40;;;7.80;33.20;;;;;;4967593;28;20493;-50
2022/04/06 01:16:10;;;;;;;7.60;6.90;;;7.80;32.40;;;;;;4964489;28;20574;-48
2022/04/06 01:18:36;;;;;;;7.40;6.80;;;7.90;29.40;;;;;;4967712;28;20509;-48
2022/04/06 01:21:03;;;;;;;6.67;6.27;;;8.00;28.70;;;;;;4967296;28;20486;-49
2022/04/06 01:23:31;;;;;;;7.20;6.60;;;8.00;27.50;;;;;;4967921;28;20545;-49
2022/04/06 01:25:58;;;;;;;7.90;7.10;;;8.00;27.10;;;;;;4962596;28;21008;-49
2022/04/06 01:28:26;;;;;;;8.40;7.70;;;8.10;24.30;;;;;;4966935;28;21042;-49
2022/04/06 01:30:52;;;;;;;7.13;6.63;;;8.10;22.30;;;;;;4962166;28;20493;-49
2022/04/06 01:33:19;;;;;;;7.37;6.80;;;8.20;21.00;;;;;;4964052;28;20589;-48
2022/04/06 01:35:47;;;;;;;7.50;7.00;;;8.20;71.70;;;;;;4962816;28;20494;-48
2022/04/06 01:38:14;;;;;;;7.00;6.33;;;8.30;74.50;;;;;;4960773;28;20525;-49
2022/04/06 01:40:42;;;;;;;7.30;6.80;;;8.30;79.00;;;;;;4956444;28;20517;-48
2022/04/06 01:43:08;;;;;;;7.17;6.67;;;8.30;86.80;;;;;;4957585;28;20504;-48
2022/04/06 01:45:35;;;;;;;8.30;7.70;;;8.30;92.90;;;;;;4959784;28;20500;-49
2022/04/06 01:48:01;;;;;;;7.63;7.07;;;8.30;99.90;;;;;;4966939;28;20524;-49
2022/04/06 01:53:12;;;;;;;7.50;7.00;;;8.40;99.90;;;;;;4970289;28;20460;-51
2022/04/06 01:55:39;;;;;;;7.87;7.07;;;8.40;99.90;;;;;;4968953;28;20553;-51
2022/04/06 01:58:07;;;;;;;8.50;7.80;;;8.40;99.90;;;;;;4971276;28;20560;-55
2022/04/06 02:00:33;;;;;;;7.30;6.67;;;8.50;99.90;;;;;;4968199;28;20477;-52
2022/04/06 02:03:01;;;;;;;9.60;7.57;;;8.50;99.90;;;;;;4978462;28;20548;-51
2022/04/06 02:05:32;;;;;;;7.93;7.23;;;8.50;99.90;;;;;;4974728;28;20982;-51
2022/04/06 02:07:59;;;;;;;8.70;7.90;;;8.50;99.90;;;;;;4975794;28;20489;-51
2022/04/06 02:10:26;;;;;;;8.40;7.70;;;8.50;99.90;;;;;;4970564;28;20473;-52
2022/04/06 02:12:56;;;;;;;9.20;8.50;;;8.50;99.90;;;;;;4975871;28;20468;-53
2022/04/06 02:15:27;;;;;;;15.83;8.73;;;8.50;99.90;;;;;;4968740;28;20465;-52
2022/04/06 02:17:53;;;;;;;11.17;10.20;;;8.50;99.90;;;;;;4965223;28;20481;-51
2022/04/06 02:20:20;;;;;;;9.97;9.07;;;8.60;99.90;;;;;;4966047;28;20586;-52
2022/04/06 02:22:47;;;;;;;10.03;9.07;;;8.60;99.90;;;;;;4969859;28;20560;-51
2022/04/06 02:25:14;;;;;;;11.57;10.57;;;8.50;99.90;;;;;;4970511;28;20476;-52
2022/04/06 02:27:46;;;;;;;10.07;9.10;;;8.60;99.90;;;;;;4973553;28;20489;-51
2022/04/06 02:30:13;;;;;;;10.03;9.10;;;8.60;99.90;;;;;;4982238;28;20539;-51
2022/04/06 02:32:41;;;;;;;10.20;9.30;;;8.60;99.90;;;;;;4965057;28;20461;-51
2022/04/06 02:35:08;;;;;;;10.10;9.17;;;8.60;99.90;;;;;;4966990;28;20469;-51
2022/04/06 02:37:35;;;;;;;10.30;9.40;;;8.60;99.90;;;;;;4967694;28;20567;-52
2022/04/06 02:40:01;;;;;;;10.53;9.60;;;8.60;99.90;;;;;;4974524;28;20522;-52
2022/04/06 02:42:28;;;;;;;12.10;11.00;;;8.60;99.90;;;;;;4969317;28;20848;-52
2022/04/06 02:44:54;;;;;;;11.77;10.70;;;8.60;99.90;;;;;;4969771;28;20904;-52
2022/04/06 02:47:21;;;;;;;11.50;10.30;;;8.60;99.90;;;;;;4966064;28;20570;-53
2022/04/06 02:49:49;;;;;;;11.33;9.60;;;8.60;99.90;;;;;;4968520;28;20465;-52
2022/04/06 02:52:17;;;;;;;10.60;9.60;;;8.60;99.90;;;;;;4972952;28;20526;-53
2022/04/06 02:54:43;;;;;;;11.40;10.50;;;8.60;99.90;;;;;;4968504;28;21031;-53
2022/04/06 02:57:10;;;;;;;10.67;9.77;;;8.60;99.90;;;;;;4965092;28;20549;-52
2022/04/06 02:59:39;;;;;;;11.60;10.37;;;8.60;99.90;;;;;;4960743;28;20517;-52
2022/04/06 03:02:05;;;;;;;11.50;10.37;;;8.50;99.90;;;;;;4962851;28;20485;-53
2022/04/06 03:04:32;;;;;;;10.77;9.80;;;8.50;99.90;;;;;;4968813;28;20470;-53
2022/04/06 03:07:00;;;;;;;11.80;9.93;;;8.50;99.90;;;;;;4968477;28;21005;-52
2022/04/06 03:09:26;;;;;;;11.23;10.23;;;8.50;99.90;;;;;;4963195;28;20513;-52
2022/04/06 03:11:53;;;;;;;11.77;10.67;;;8.50;99.90;;;;;;4967714;28;20513;-52
2022/04/06 03:14:19;;;;;;;12.30;11.20;;;8.50;99.90;;;;;;4971193;28;20554;-52
2022/04/06 03:16:46;;;;;;;10.73;9.63;;;8.50;99.90;;;;;;4972874;28;20556;-52
2022/04/06 03:19:12;;;;;;;10.43;9.43;;;8.50;99.90;;;;;;4972265;28;20528;-53
2022/04/06 03:21:39;;;;;;;10.87;9.97;;;8.50;99.90;;;;;;4969359;28;20572;-52
2022/04/06 03:24:07;;;;;;;12.47;10.23;;;8.50;99.90;;;;;;4965517;28;21038;-52
2022/04/06 03:26:34;;;;;;;10.60;9.53;;;8.50;99.90;;;;;;4961785;28;21092;-52
2022/04/06 03:29:00;;;;;;;10.63;9.63;;;8.60;99.90;;;;;;4972317;28;20567;-52
2022/04/06 03:31:27;;;;;;;14.13;10.30;;;8.50;99.90;;;;;;4967008;28;20848;-53
2022/04/06 03:33:53;;;;;;;11.53;10.47;;;8.50;99.90;;;;;;4966128;28;20548;-52
2022/04/06 03:36:20;;;;;;;11.30;10.30;;;8.50;99.90;;;;;;4964893;28;20489;-52
2022/04/06 03:38:46;;;;;;;11.83;10.83;;;8.50;99.10;;;;;;4963994;28;20568;-53
2022/04/06 03:41:14;;;;;;;12.10;10.80;;;8.50;92.30;;;;;;4971962;28;20584;-52
2022/04/06 03:43:41;;;;;;;14.60;10.43;;;8.50;74.80;;;;;;4962638;28;20469;-52
2022/04/06 03:46:08;;;;;;;10.83;9.30;;;8.50;21.40;;;;;;4974278;28;20553;-52
2022/04/06 03:48:34;;;;;;;14.23;10.50;;;8.50;24.00;;;;;;4965929;28;20494;-53
2022/04/06 03:51:01;;;;;;;12.27;9.47;;;8.50;27.10;;;;;;4975283;28;20879;-50
2022/04/06 03:53:27;;;;;;;12.50;11.40;;;8.50;29.50;;;;;;4965998;28;20884;-49
2022/04/06 03:55:54;;;;;;;11.77;10.57;;;8.50;34.30;;;;;;4971102;28;20493;-51
2022/04/06 03:58:22;;;;;;;14.50;11.23;;;8.50;34.50;;;;;;4967508;28;20561;-51
2022/04/06 04:00:48;;;;;;;10.00;8.97;;;8.50;42.80;;;;;;4966433;28;20576;-51
2022/04/06 04:03:15;;;;;;;12.10;9.03;;;8.50;52.10;;;;;;4961720;28;20558;-49
2022/04/06 04:05:41;;;;;;;10.37;8.80;;;8.50;50.50;;;;;;4965569;28;20669;-49
2022/04/06 04:08:08;;;;;;;9.63;8.70;;;8.50;58.20;;;;;;4962543;28;20569;-52
2022/04/06 04:10:35;;;;;;;9.20;8.40;;;8.40;59.10;;;;;;4965687;28;20554;-49
2022/04/06 04:13:02;;;;;;;10.13;9.10;;;8.50;61.20;;;;;;4966150;28;20465;-49
2022/04/06 04:15:31;;;;;;;10.67;7.77;;;8.50;79.00;;;;;;4961476;28;20467;-49
2022/04/06 04:17:57;;;;;;;10.33;8.40;;;8.50;90.30;;;;;;4963197;28;20482;-49
2022/04/06 04:20:24;;;;;;;9.37;8.47;;;8.50;91.50;;;;;;4968410;28;20548;-49
2022/04/06 04:22:50;;;;;;;8.20;7.40;;;8.50;93.00;;;;;;4967940;28;20557;-49
2022/04/06 04:25:17;;;;;;;7.37;6.63;;;8.50;99.90;;;;;;4961359;28;20500;-49
2022/04/06 04:27:43;;;;;;;10.10;8.63;;;8.50;99.90;;;;;;4970989;28;20567;-49
2022/04/06 04:30:11;;;;;;;10.47;7.70;;;8.60;99.90;;;;;;4968421;28;20465;-49
2022/04/06 04:32:39;;;;;;;9.03;8.10;;;8.50;99.90;;;;;;4968905;28;20521;-48
2022/04/06 04:35:08;;;;;;;7.70;6.97;;;8.50;99.90;;;;;;4970063;28;20460;-48
2022/04/06 04:37:35;;;;;;;8.47;7.60;;;8.50;99.90;;;;;;4963835;28;20561;-49
2022/04/06 04:40:02;;;;;;;10.13;7.50;;;8.50;99.90;;;;;;4967477;28;20572;-48
2022/04/06 04:42:29;;;;;;;11.43;8.20;;;8.50;99.90;;;;;;4971258;28;20585;-48
2022/04/06 04:44:55;;;;;;;8.43;7.60;;;8.50;99.90;;;;;;4964639;28;20559;-49
2022/04/06 04:47:22;;;;;;;25.70;8.37;;;8.50;99.90;;;;;;4964952;28;20564;-48
2022/04/06 04:49:50;;;;;;;8.90;7.60;;;8.50;99.90;;;;;;4963684;28;20478;-49
2022/04/06 04:52:17;;;;;;;8.40;6.93;;;8.40;99.90;;;;;;4960215;28;20557;-49
2022/04/06 04:54:43;;;;;;;8.00;7.20;;;8.40;99.90;;;;;;4967257;28;20558;-48
2022/04/06 04:57:10;;;;;;;8.50;7.70;;;8.40;99.90;;;;;;4974811;28;20481;-49
2022/04/06 04:59:36;;;;;;;8.10;7.40;;;8.40;99.90;;;;;;4963069;28;20905;-49
2022/04/06 05:02:03;;;;;;;9.70;6.73;;;8.40;99.90;;;;;;4963603;28;20541;-51
2022/04/06 05:04:29;;;;;;;8.13;7.20;;;8.40;99.90;;;;;;4968836;28;20593;-50
2022/04/06 05:06:57;;;;;;;10.20;8.10;;;8.40;99.90;;;;;;4954075;28;20541;-51
2022/04/06 05:09:24;;;;;;;8.17;7.30;;;8.40;99.90;;;;;;4965699;28;20552;-51
2022/04/06 05:11:51;;;;;;;8.53;7.43;;;8.40;99.90;;;;;;4963433;28;20509;-51
2022/04/06 05:14:17;;;;;;;8.63;7.57;;;8.40;99.90;;;;;;4971890;28;20501;-51
2022/04/06 05:16:44;;;;;;;8.17;7.37;;;8.40;99.90;;;;;;4963545;28;20470;-52
2022/04/06 05:19:10;;;;;;;8.77;7.10;;;8.50;99.90;;;;;;4960497;28;20575;-51
2022/04/06 05:21:37;;;;;;;7.77;6.97;;;8.40;99.90;;;;;;4954379;28;20521;-51
2022/04/06 05:24:05;;;;;;;8.23;7.43;;;8.50;99.90;;;;;;4959007;28;20565;-51
2022/04/06 05:26:32;;;;;;;8.37;7.57;;;8.50;99.90;;;;;;4970086;28;20520;-51
2022/04/06 05:28:59;;;;;;;9.47;8.00;;;8.50;99.90;;;;;;4958600;28;20928;-51
2022/04/06 05:31:25;;;;;;;9.10;8.20;;;8.60;99.90;;;;;;4975264;28;20551;-51
2022/04/06 05:33:52;;;;;;;14.90;8.20;;;8.60;99.90;;;;;;4983772;28;20469;-51
2022/04/06 05:36:18;;;;;;;7.73;6.93;;;8.60;99.90;;;;;;4992699;28;20452;-51
2022/04/06 05:38:45;;;;;;;11.13;8.43;;;8.60;99.90;;;;;;4973883;28;20496;-52
2022/04/06 05:41:13;;;;;;;8.50;7.70;;;8.60;99.90;;;;;;4969588;28;20506;-50
2022/04/06 05:43:40;;;;;;;17.83;7.53;;;8.60;99.90;;;;;;4966065;28;20925;-51
2022/04/06 05:46:06;;;;;;;9.23;7.70;;;8.70;99.90;;;;;;4961506;28;20913;-50
2022/04/06 05:48:34;;;;;;;8.77;7.50;;;8.60;99.90;;;;;;4973605;28;21295;-53
2022/04/06 05:51:01;;;;;;;9.87;8.40;;;8.70;99.90;;;;;;4980026;28;20470;-53
2022/04/06 05:53:27;;;;;;;9.60;8.07;;;8.70;99.90;;;;;;4961632;28;20473;-52
2022/04/06 05:55:54;;;;;;;10.23;8.70;;;8.70;99.90;;;;;;4966919;28;20462;-53
2022/04/06 05:58:22;;;;;;;11.50;9.00;;;8.70;99.90;;;;;;4973921;28;20552;-52
2022/04/06 06:00:48;;;;;;;10.70;8.30;;;8.80;99.90;;;;;;4974647;28;20504;-52
2022/04/06 06:03:15;;;;;;;12.10;9.93;;;8.80;99.90;;;;;;4966588;28;20850;-53
2022/04/06 06:05:43;;;;;;;11.40;7.87;;;8.90;99.90;;;;;;4967155;28;20524;-52
2022/04/06 06:08:10;;;;;;;11.33;9.10;;;8.90;99.90;;;;;;4969765;28;20980;-52
2022/04/06 06:10:38;;;;;;;12.80;9.80;;;8.90;99.90;;;;;;4969350;28;20553;-53
2022/04/06 06:13:04;;;;;;;12.10;8.80;;;8.90;99.90;;;;;;4975539;28;20838;-52
2022/04/06 06:15:32;;;;;;;13.10;9.40;;;9.00;99.90;;;;;;4966457;28;20552;-53
2022/04/06 06:17:59;;;;;;;11.23;9.10;;;9.00;99.90;;;;;;4954581;28;20580;-53
2022/04/06 06:20:27;;;;;;;13.73;9.73;;;9.00;29.70;;;;;;4966878;28;20494;-52
2022/04/06 06:22:53;;;;;;;10.90;8.90;;;9.00;27.10;;;;;;4975968;28;20516;-53
2022/04/06 06:25:20;;;;;;;10.00;9.00;;;9.10;29.40;;;;;;4960269;28;20548;-52
2022/04/06 06:27:47;;;;;;;13.67;9.00;;;9.10;28.70;;;;;;4966141;28;20925;-52
2022/04/06 06:30:14;;;;;;;11.90;9.60;;;9.10;30.70;;;;;;4969352;28;20497;-53
2022/04/06 06:32:42;;;;;;;10.23;9.20;;;9.10;38.20;;;;;;4964594;28;20489;-53
2022/04/06 06:35:10;;;;;;;16.27;9.77;;;9.10;35.20;;;;;;4968423;28;20462;-53
2022/04/06 06:37:36;;;;;;;13.70;9.63;;;9.20;40.50;;;;;;4961594;28;20517;-52
2022/04/06 06:40:04;;;;;;;13.50;9.83;;;9.20;39.80;;;;;;4974549;28;20497;-53
2022/04/06 06:42:30;;;;;;;18.13;9.90;;;9.20;43.50;;;;;;4972761;28;20564;-52
2022/04/06 06:44:58;;;;;;;17.70;11.43;;;9.10;36.20;;;;;;4966789;28;20908;-53
2022/04/06 06:47:24;;;;;;;15.10;10.43;;;9.10;32.30;;;;;;4964490;28;20556;-52
2022/04/06 06:49:52;;;;;;;16.43;11.77;;;9.10;26.10;;;;;;4962443;28;20588;-53
2022/04/06 06:52:19;;;;;;;19.10;12.37;;;9.10;22.90;;;;;;4978098;28;20533;-52
2022/04/06 06:54:45;;;;;;;20.30;13.80;;;9.10;99.90;;;;;;4971750;28;20503;-53
2022/04/06 06:57:12;;;;;;;20.10;13.43;;;9.10;20.50;;;;;;4968996;28;20552;-53
2022/04/06 06:59:38;;;;;;;21.43;14.70;;;9.20;23.90;;;;;;4973874;28;20486;-53
2022/04/06 07:02:05;;;;;;;19.23;14.07;;;9.20;35.30;;;;;;4968543;28;20551;-53
2022/04/06 07:04:31;;;;;;;15.63;12.40;;;9.20;31.60;;;;;;4967494;28;20505;-52
2022/04/06 07:06:59;;;;;;;20.33;15.00;;;9.20;35.50;;;;;;4967132;28;20556;-53
2022/04/06 07:09:26;;;;;;;20.67;15.67;;;9.20;45.10;;;;;;4973937;28;20567;-53
2022/04/06 07:11:53;;;;;;;18.47;14.93;;;9.30;38.60;;;;;;4971928;28;20551;-52
2022/04/06 07:14:20;;;;;;;20.80;16.03;;;9.30;43.80;;;;;;4972645;28;20469;-53
2022/04/06 07:16:46;;;;;;;18.90;15.87;;;9.30;52.10;;;;;;4968829;28;20493;-53
2022/04/06 07:19:13;;;;;;;30.10;18.00;;;9.30;64.40;;;;;;4979222;28;20596;-54
2022/04/06 07:21:39;;;;;;;24.33;18.37;;;9.40;75.10;;;;;;4973052;28;20573;-53
2022/04/06 07:24:08;;;;;;;20.23;16.57;;;9.40;86.00;;;;;;4975496;28;20549;-53
2022/04/06 07:26:34;;;;;;;25.40;17.90;;;9.40;93.80;;;;;;4964575;28;20556;-53
2022/04/06 07:29:01;;;;;;;26.43;18.30;;;9.60;99.90;;;;;;4963252;28;20601;-53
2022/04/06 07:31:27;;;;;;;24.73;19.13;;;9.60;99.90;;;;;;4967051;28;20560;-53
2022/04/06 07:33:54;;;;;;;23.13;17.23;;;9.80;99.90;;;;;;4976478;28;20885;-53
2022/04/06 07:36:20;;;;;;;32.00;18.43;;;9.80;99.90;;;;;;4977776;28;20504;-52
2022/04/06 07:38:47;;;;;;;28.23;19.50;;;9.90;99.90;;;;;;4965467;28;20586;-53
2022/04/06 07:41:15;;;;;;;22.67;17.33;;;10.00;99.90;;;;;;4973418;28;20883;-53
2022/04/06 07:43:41;;;;;;;28.70;18.90;;;10.20;99.90;;;;;;4967671;28;20580;-53
2022/04/06 07:46:08;;;;;;;23.83;18.60;;;10.20;99.90;;;;;;4970731;28;20517;-53
2022/04/06 07:48:35;;;;;;;23.33;17.00;;;10.30;99.90;;;;;;4965135;28;20489;-53
2022/04/06 07:51:01;;;;;;;36.53;16.93;;;10.40;99.90;;;;;;4961683;28;21068;-53
2022/04/06 07:53:28;;;;;;;27.57;17.03;;;10.50;99.90;;;;;;4963290;28;20545;-53
2022/04/06 07:55:55;;;;;;;19.93;15.30;;;10.50;78.60;;;;;;4971415;28;20464;-53
2022/04/06 07:58:23;;;;;;;27.10;16.30;;;10.60;23.80;;;;;;4960838;28;20576;-52
2022/04/06 08:00:50;;;;;;;30.57;16.80;;;10.60;30.90;;;;;;4966477;28;20545;-53
2022/04/06 08:03:16;;;;;;;24.50;16.30;;;10.70;48.20;;;;;;4958153;28;20580;-53
2022/04/06 08:05:43;;;;;;;24.53;15.80;;;11.00;59.30;;;;;;4965771;28;20985;-52
2022/04/06 08:08:10;;;;;;;28.03;17.27;;;11.10;87.70;;;;;;4974694;28;20576;-53
2022/04/06 08:10:36;;;;;;;22.57;15.13;;;11.20;93.00;;;;;;4961123;28;20544;-53
2022/04/06 08:13:03;;;;;;;22.53;15.07;;;11.20;77.70;;;;;;4967613;28;20949;-53
2022/04/06 08:15:31;;;;;;;23.40;14.63;;;11.20;92.00;;;;;;4957338;28;20910;-53
2022/04/06 08:17:58;;;;;;;24.73;14.87;;;11.10;89.50;;;;;;4966385;28;20571;-53
2022/04/06 08:20:24;;;;;;;29.80;14.10;;;11.00;99.90;;;;;;4965901;28;20549;-52
2022/04/06 08:22:51;;;;;;;25.93;13.40;;;10.90;95.50;;;;;;4969080;28;21006;-52
2022/04/06 08:25:18;;;;;;;28.23;14.40;;;10.80;99.90;;;;;;4965272;28;20577;-53
2022/04/06 08:27:46;;;;;;;22.30;13.93;;;10.80;85.00;;;;;;4967109;28;20482;-53
2022/04/06 08:30:13;;;;;;;20.47;12.87;;;10.80;79.10;;;;;;4966826;28;20465;-53
2022/04/06 08:32:41;;;;;;;26.20;13.60;;;10.80;77.30;;;;;;4964741;28;20468;-53
2022/04/06 08:35:09;;;;;;;16.77;12.73;;;10.90;73.90;;;;;;4958324;28;20533;-54
2022/04/06 08:37:37;;;;;;;22.63;13.37;;;11.00;65.90;;;;;;4961046;28;20535;-53
2022/04/06 08:40:07;;;;;;;27.53;13.07;;;11.10;99.90;;;;;;4969316;28;20457;-52
2022/04/06 08:42:35;;;;;;;18.30;11.40;;;11.00;99.90;;;;;;4975824;28;20564;-54
2022/04/06 08:45:02;;;;;;;19.00;12.50;;;11.00;99.90;;;;;;4958009;28;20958;-52
2022/04/06 08:47:31;;;;;;;19.23;11.43;;;10.90;99.90;;;;;;4974853;28;20470;-53
2022/04/06 08:49:59;;;;;;;19.83;10.90;;;10.90;99.90;;;;;;4976659;28;20454;-52
2022/04/06 08:52:26;;;;;;;21.07;10.80;;;10.90;99.90;;;;;;4973416;28;20561;-53
2022/04/06 08:54:53;;;;;;;13.80;9.53;;;10.90;99.90;;;;;;4982194;28;20469;-54
2022/04/06 08:57:19;;;;;;;16.50;9.13;;;10.90;99.90;;;;;;4981645;28;20452;-53
2022/04/06 08:59:47;;;;;;;19.20;9.90;;;10.90;99.90;;;;;;4969341;28;20466;-54
2022/04/06 09:02:18;;;;;;;13.67;9.43;;;10.90;99.90;;;;;;4965666;28;20508;-52
2022/04/06 09:04:45;;;;;;;16.70;9.60;;;11.00;99.90;;;;;;4964004;28;20500;-52
2022/04/06 09:07:13;;;;;;;18.93;8.80;;;11.00;99.90;;;;;;4958866;28;20530;-55
2022/04/06 09:09:39;;;;;;;17.30;8.70;;;11.00;99.90;;;;;;4957304;28;21019;-53
2022/04/06 09:12:08;;;;;;;11.50;8.40;;;11.10;99.90;;;;;;4967348;28;20545;-54
2022/04/06 09:14:34;;;;;;;14.23;7.77;;;11.10;99.90;;;;;;4960302;28;20466;-53
2022/04/06 09:17:03;;;;;;;21.40;8.30;;;11.00;99.90;;;;;;4957650;28;21018;-53
2022/04/06 09:19:30;;;;;;;13.10;7.60;;;11.00;99.90;;;;;;4963775;28;20485;-53
2022/04/06 09:21:56;;;;;;;11.93;7.33;;;11.00;99.90;;;;;;4971004;28;20910;-53
2022/04/06 09:24:25;;;;;;;11.87;7.13;;;10.90;99.90;;;;;;4965493;28;20552;-52
2022/04/06 09:26:57;;;;;;;13.03;7.73;;;11.00;99.90;;;;;;4966230;28;20835;-53
2022/04/06 09:29:24;;;;;;;8.67;7.73;;;10.90;99.90;;;;;;4963715;28;20961;-53
2022/04/06 09:31:51;;;;;;;12.67;7.53;;;10.90;99.90;;;;;;4967390;28;20468;-53
2022/04/06 09:34:21;;;;;;;15.40;8.40;;;10.90;99.90;;;;;;4967656;28;20963;-53
2022/04/06 09:36:50;;;;;;;8.77;7.67;;;10.80;99.90;;;;;;4962598;28;20470;-53
2022/04/06 09:39:17;;;;;;;12.20;8.30;;;10.90;99.90;;;;;;4967079;28;20489;-54
2022/04/06 09:42:00;;;;;;;9.70;8.07;;;11.00;99.90;;;;;;4965785;28;20546;-54
2022/04/06 09:50:12;;;;;;;11.70;8.83;;;11.70;99.90;;;;;;4963246;28;20475;-52
2022/04/06 09:52:39;;;;;;;17.07;9.50;;;11.90;99.90;;;;;;4969528;28;20450;-53
2022/04/06 09:55:08;;;;;;;14.53;9.50;;;12.00;99.90;;;;;;4972103;28;21035;-53
2022/04/06 09:57:41;;;;;;;12.90;8.30;;;12.20;99.90;;;;;;4965844;28;20912;-53
2022/04/06 10:00:10;;;;;;;18.97;9.30;;;12.50;30.00;;;;;;4965193;28;20461;-53
2022/04/06 10:02:37;;;;;;;14.10;8.40;;;12.40;24.90;;;;;;4960987;28;20493;-52
2022/04/06 10:05:05;;;;;;;9.93;8.30;;;12.30;31.20;;;;;;4971518;28;20536;-53
2022/04/06 10:07:33;;;;;;;11.60;7.47;;;12.10;32.30;;;;;;4961413;28;20564;-53
2022/04/06 10:10:01;;;;;;;14.50;9.00;;;11.90;33.20;;;;;;4971736;28;20547;-53
2022/04/06 10:12:27;;;;;;;20.63;9.47;;;11.90;22.90;;;;;;4963936;28;20537;-54
2022/04/06 10:14:57;;;;;;;15.53;9.50;;;12.00;86.30;;;;;;4980558;28;20485;-53
2022/04/06 10:17:25;;;;;;;16.00;8.20;;;12.10;82.70;;;;;;4964208;28;20537;-53
2022/04/06 10:19:57;;;;;;;11.00;8.30;;;12.30;41.10;;;;;;4964979;28;20552;-53
2022/04/06 10:22:29;;;;;;;13.10;8.87;;;12.30;37.10;;;;;;4978423;28;20468;-54
2022/04/06 10:25:02;;;;;;;14.60;9.80;;;12.20;38.60;;;;;;4971941;28;20556;-53
2022/04/06 10:27:33;;;;;;;14.80;9.70;;;12.10;41.10;;;;;;4970879;28;20561;-52
2022/04/06 10:30:11;;;;;;;11.00;9.27;;;12.30;41.10;;;;;;4967707;28;20500;-54
2022/04/06 10:32:39;;;;;;;19.43;9.63;;;12.60;50.70;;;;;;4965783;28;20504;-52
2022/04/06 10:35:19;;;;;;;11.63;8.50;;;12.80;55.30;;;;;;4965816;28;20529;-54
2022/04/06 10:38:13;;;;;;;14.37;8.77;;;12.80;70.00;;;;;;4968030;28;20484;-54
2022/04/06 10:40:58;;;;;;;14.60;8.57;;;12.70;67.50;;;;;;4966700;28;20453;-53
2022/04/06 10:43:50;;;;;;;14.33;9.20;;;12.70;66.00;;;;;;4967623;28;20901;-52
2022/04/06 10:46:32;;;;;;;13.30;9.20;;;12.90;73.80;;;;;;4971980;28;20460;-53
2022/04/06 10:49:00;;;;;;;16.83;9.07;;;12.80;77.40;;;;;;4968408;28;20485;-53
2022/04/06 10:51:28;;;;;;;8.77;7.83;;;12.80;63.10;;;;;;4974367;28;21035;-53
2022/04/06 10:53:55;;;;;;;12.37;8.13;;;13.40;94.30;;;;;;4967650;28;20442;-53
2022/04/06 10:56:22;;;;;;;12.57;8.00;;;13.60;95.00;;;;;;4964410;28;20466;-53
2022/04/06 10:59:11;;;;;;;11.37;8.13;;;13.50;97.10;;;;;;4976916;28;20479;-53
2022/04/06 11:01:45;;;;;;;10.47;7.87;;;13.00;93.80;;;;;;4968289;28;20503;-57
2022/04/06 11:04:18;;;;;;;10.77;8.77;;;12.70;83.60;;;;;;4973722;28;20494;-52
2022/04/06 11:06:59;;;;;;;9.63;7.80;;;12.40;80.60;;;;;;4977611;28;20454;-53
2022/04/06 11:12:15;;;;;;;9.40;7.70;;;12.10;62.90;;;;;;4970766;28;20512;-53
2022/04/06 11:14:43;;;;;;;21.67;8.33;;;12.00;71.10;;;;;;4966303;28;20528;-52
2022/04/06 11:17:37;;;;;;;13.80;7.73;;;12.00;70.50;;;;;;4964397;28;20488;-52
2022/04/06 11:20:07;;;;;;;8.07;6.13;;;11.80;68.60;;;;;;4969566;28;20458;-53
2022/04/06 11:22:35;;;;;;;12.07;7.83;;;11.90;65.50;;;;;;4976807;28;20856;-53
2022/04/06 11:25:02;;;;;;;10.07;8.43;;;11.90;61.70;;;;;;4974912;28;20470;-53
2022/04/06 11:27:30;;;;;;;13.73;8.87;;;11.90;67.10;;;;;;4971510;28;20890;-53
2022/04/06 11:30:00;;;;;;;13.50;8.17;;;11.80;74.40;;;;;;4965802;28;20469;-53
2022/04/06 11:32:27;;;;;;;12.47;6.73;;;11.80;69.00;;;;;;4966427;28;20466;-53
2022/04/06 11:35:01;;;;;;;10.27;7.77;;;11.80;63.90;;;;;;4973035;28;20545;-52
2022/04/06 11:37:28;;;;;;;11.10;8.00;;;11.70;63.90;;;;;;4968112;28;20566;-53
2022/04/06 11:39:58;;;;;;;13.70;8.73;;;11.70;69.50;;;;;;4973500;28;20522;-53
2022/04/06 11:42:25;;;;;;;7.47;6.67;;;11.60;67.30;;;;;;4969157;28;20896;-53
2022/04/06 11:44:52;;;;;;;13.33;7.70;;;11.70;63.00;;;;;;4965391;28;21094;-53
2022/04/06 11:47:30;;;;;;;14.33;8.33;;;11.60;54.30;;;;;;4965223;28;20563;-54
2022/04/06 11:49:57;;;;;;;8.00;7.20;;;11.60;55.40;;;;;;4969256;23;20490;-46
2022/04/06 11:52:26;;;;;;;14.03;8.53;;;11.50;54.00;;;;;;4971800;28;20540;-47
2022/04/06 11:54:54;;;;;;;10.77;8.80;;;11.50;52.40;;;;;;4969952;28;20482;-47
2022/04/06 11:57:21;;;;;;;14.57;8.63;;;11.50;49.80;;;;;;4970601;28;21011;-48
2022/04/06 11:59:55;;;;;;;10.60;9.50;;;11.40;48.70;;;;;;4970621;28;20535;-47
2022/04/06 12:02:22;;;;;;;19.43;9.00;;;11.40;48.20;;;;;;4970752;28;20489;-47
2022/04/06 12:05:00;;;;;;;14.50;9.20;;;11.30;48.80;;;;;;4971466;28;20877;-47
2022/04/06 12:07:28;;;;;;;13.20;9.33;;;11.30;44.70;;;;;;4970204;28;21037;-48
2022/04/06 12:09:55;;;;;;;16.53;10.50;;;11.20;56.50;;;;;;4967208;28;20571;-48
2022/04/06 12:12:23;;;;;;;13.93;9.93;;;11.20;56.60;;;;;;4973159;28;20489;-47
2022/04/06 12:14:51;;;;;;;16.23;10.90;;;11.10;54.00;;;;;;4964959;28;20481;-47
2022/04/06 12:17:19;;;;;;;11.20;9.20;;;11.20;48.60;;;;;;4973070;28;20528;-47
2022/04/06 12:19:45;;;;;;;14.57;9.77;;;11.10;47.30;;;;;;4972080;28;20594;-46
2022/04/06 12:22:12;;;;;;;14.97;9.40;;;11.10;46.50;;;;;;4972596;28;20971;-47
2022/04/06 12:24:41;;;;;;;12.80;8.50;;;11.10;60.20;;;;;;4973625;28;21034;-47
2022/04/06 12:27:08;;;;;;;11.00;8.57;;;11.10;61.70;;;;;;4973740;28;20449;-48
2022/04/06 12:29:38;;;;;;;12.03;8.43;;;11.20;52.70;;;;;;4971958;28;21030;-47
2022/04/06 12:32:06;;;;;;;11.13;8.20;;;11.20;64.50;;;;;;4970322;28;20544;-47
2022/04/06 12:34:34;;;;;;;12.10;7.90;;;11.20;63.70;;;;;;4971668;28;20477;-46
2022/04/06 12:37:29;;;;;;;11.37;8.27;;;11.20;69.70;;;;;;4970777;28;20461;-47
2022/04/06 12:39:52;;;;;;;11.30;9.10;;;11.30;67.80;;;;;;4970132;28;20495;-48
2022/04/06 12:42:19;;;;;;;10.57;7.13;;;11.30;67.50;;;;;;4972322;28;20863;-47
2022/04/06 12:44:57;;;;;;;11.60;8.03;;;11.30;78.40;;;;;;4971520;28;20485;-47
2022/04/06 12:47:24;;;;;;;8.67;7.13;;;11.40;80.30;;;;;;4971023;28;20457;-46
2022/04/06 12:49:51;;;;;;;8.60;7.00;;;11.60;86.30;;;;;;4970675;28;21066;-47
2022/04/06 12:52:20;;;;;;;12.47;8.17;;;11.70;92.00;;;;;;4972883;28;20460;-47
2022/04/06 12:54:47;;;;;;;18.13;7.40;;;12.00;93.00;;;;;;4970173;28;20537;-47
2022/04/06 12:57:18;;;;;;;11.60;7.63;;;12.10;99.80;;;;;;4972788;28;20456;-46
2022/04/06 12:59:47;;;;;;;12.00;6.47;;;11.90;98.30;;;;;;4971417;28;20571;-47